createdAt,value
2018-06-13T00:00:13.120Z,22.70
2018-06-13T00:01:13.115Z,22.66
2018-06-13T00:02:13.108Z,22.60
2018-06-13T00:03:13.102Z,22.54
2018-06-13T00:04:13.097Z,22.51
2018-06-13T00:05:13.090Z,22.36
2018-06-13T00:06:13.084Z,22.33
2018-06-13T00:07:13.077Z,22.31
2018-06-13T00:08:13.073Z,22.31
2018-06-13T00:09:13.067Z,22.30
2018-06-13T00:10:13.060Z,22.15
2018-06-13T00:11:13.053Z,22.15
2018-06-13T00:12:13.047Z,22.01
2018-06-13T00:13:13.104Z,22.15
2018-06-13T00:14:13.034Z,21.89
2018-06-13T00:15:13.028Z,21.99
2018-06-13T00:16:13.022Z,22.02
2018-06-13T00:17:13.015Z,21.93
2018-06-13T00:18:13.009Z,21.96
2018-06-13T00:19:13.003Z,22.01
2018-06-13T00:20:12.995Z,21.99
2018-06-13T00:21:12.991Z,21.99
2018-06-13T00:22:12.985Z,21.93
2018-06-13T00:23:12.978Z,21.94
2018-06-13T00:24:12.969Z,21.91
2018-06-13T00:25:12.964Z,21.83
2018-06-13T00:26:12.957Z,21.98
2018-06-13T00:27:12.950Z,21.93
2018-06-13T00:28:12.942Z,21.96
2018-06-13T00:29:12.937Z,21.90
2018-06-13T00:30:12.929Z,21.91
2018-06-13T00:31:12.922Z,21.91
2018-06-13T00:32:12.915Z,21.89
2018-06-13T00:33:12.909Z,21.85
2018-06-13T00:34:12.903Z,21.85
2018-06-13T00:35:12.895Z,21.83
2018-06-13T00:36:12.889Z,21.73
2018-06-13T00:37:12.937Z,21.74
2018-06-13T00:38:12.876Z,21.77
2018-06-13T00:39:12.868Z,21.86
2018-06-13T00:40:12.865Z,21.73
2018-06-13T00:41:12.858Z,21.71
2018-06-13T00:42:12.849Z,21.74
2018-06-13T00:43:12.841Z,21.66
2018-06-13T00:44:12.835Z,21.70
2018-06-13T00:45:12.834Z,21.73
2018-06-13T00:46:12.824Z,21.67
2018-06-13T00:47:12.816Z,21.67
2018-06-13T00:48:12.808Z,21.68
2018-06-13T00:49:12.807Z,21.68
2018-06-13T00:50:12.798Z,21.89
2018-06-13T00:51:12.787Z,21.83
2018-06-13T00:52:12.781Z,21.70
2018-06-13T00:53:12.775Z,21.73
2018-06-13T00:54:12.773Z,21.67
2018-06-13T00:55:12.763Z,21.81
2018-06-13T00:56:12.756Z,21.70
2018-06-13T00:57:12.748Z,21.68
2018-06-13T00:58:12.743Z,21.70
2018-06-13T00:59:12.734Z,21.70
2018-06-13T01:00:12.730Z,21.64
2018-06-13T01:01:12.725Z,21.66
2018-06-13T01:02:12.718Z,21.67
2018-06-13T01:03:12.707Z,21.73
2018-06-13T01:04:12.701Z,21.75
2018-06-13T01:05:12.695Z,21.67
2018-06-13T01:06:12.688Z,21.68
2018-06-13T01:07:12.681Z,21.75
2018-06-13T01:08:12.674Z,21.68
2018-06-13T01:09:12.667Z,21.67
2018-06-13T01:10:12.660Z,21.83
2018-06-13T01:11:12.854Z,21.85
2018-06-13T01:12:12.647Z,21.73
2018-06-13T01:13:12.645Z,21.70
2018-06-13T01:14:12.636Z,21.67
2018-06-13T01:15:12.627Z,21.71
2018-06-13T01:16:12.620Z,21.70
2018-06-13T01:17:12.613Z,21.71
2018-06-13T01:18:12.607Z,21.73
2018-06-13T01:19:12.600Z,21.70
2018-06-13T01:20:12.593Z,21.77
2018-06-13T01:21:12.589Z,21.79
2018-06-13T01:22:12.580Z,21.68
2018-06-13T01:23:12.572Z,21.74
2018-06-13T01:24:12.570Z,21.74
2018-06-13T01:25:12.559Z,21.63
2018-06-13T01:26:12.553Z,21.70
2018-06-13T01:27:12.546Z,21.59
2018-06-13T01:28:12.539Z,21.66
2018-06-13T01:29:12.545Z,21.48
2018-06-13T01:30:12.525Z,21.46
2018-06-13T01:31:12.519Z,21.43
2018-06-13T01:32:12.512Z,21.38
2018-06-13T01:33:12.504Z,21.38
2018-06-13T01:34:12.498Z,21.42
2018-06-13T01:35:12.491Z,21.36
2018-06-13T01:36:12.486Z,21.40
2018-06-13T01:37:12.477Z,21.48
2018-06-13T01:38:12.472Z,21.55
2018-06-13T01:39:12.464Z,21.51
2018-06-13T01:40:12.459Z,21.53
2018-06-13T01:41:12.452Z,21.58
2018-06-13T01:42:12.443Z,21.66
2018-06-13T01:43:12.437Z,21.59
2018-06-13T01:44:12.437Z,21.67
2018-06-13T01:45:12.426Z,21.55
2018-06-13T01:46:12.417Z,21.49
2018-06-13T01:47:12.408Z,21.52
2018-06-13T01:48:12.403Z,21.66
2018-06-13T01:49:12.395Z,21.61
2018-06-13T01:50:12.389Z,21.67
2018-06-13T01:51:12.381Z,21.61
2018-06-13T01:52:12.376Z,21.64
2018-06-13T01:53:12.373Z,21.58
2018-06-13T01:54:12.369Z,21.61
2018-06-13T01:55:12.354Z,21.59
2018-06-13T01:56:12.347Z,21.66
2018-06-13T01:57:12.350Z,21.68
2018-06-13T01:58:12.340Z,21.71
2018-06-13T01:59:12.329Z,21.67
2018-06-13T02:00:12.321Z,21.67
2018-06-13T02:01:12.315Z,21.71
2018-06-13T02:02:12.307Z,21.75
2018-06-13T02:03:12.300Z,21.70
2018-06-13T02:04:12.293Z,21.70
2018-06-13T02:05:12.289Z,21.67
2018-06-13T02:06:12.280Z,21.68
2018-06-13T02:07:12.279Z,21.68
2018-06-13T02:08:12.266Z,21.70
2018-06-13T02:09:12.262Z,21.68
2018-06-13T02:10:12.256Z,21.73
2018-06-13T02:11:12.448Z,21.74
2018-06-13T02:12:12.240Z,21.73
2018-06-13T02:13:12.241Z,21.67
2018-06-13T02:14:12.228Z,21.64
2018-06-13T02:15:12.219Z,21.67
2018-06-13T02:16:12.212Z,21.64
2018-06-13T02:17:12.207Z,21.63
2018-06-13T02:18:12.199Z,21.68
2018-06-13T02:19:12.196Z,21.61
2018-06-13T02:20:12.187Z,21.64
2018-06-13T02:21:12.180Z,21.55
2018-06-13T02:22:12.174Z,21.63
2018-06-13T02:23:12.366Z,21.67
2018-06-13T02:24:12.164Z,21.58
2018-06-13T02:25:12.155Z,21.64
2018-06-13T02:26:12.147Z,21.64
2018-06-13T02:27:12.139Z,21.66
2018-06-13T02:28:12.133Z,21.61
2018-06-13T02:29:12.127Z,21.58
2018-06-13T02:30:12.121Z,21.55
2018-06-13T02:31:12.113Z,21.58
2018-06-13T02:32:12.105Z,21.51
2018-06-13T02:33:12.102Z,21.49
2018-06-13T02:34:12.091Z,21.43
2018-06-13T02:35:12.086Z,21.43
2018-06-13T02:36:12.077Z,21.48
2018-06-13T02:37:12.070Z,21.51
2018-06-13T02:38:12.063Z,21.55
2018-06-13T02:39:12.078Z,21.51
2018-06-13T02:40:12.055Z,21.55
2018-06-13T02:41:12.244Z,21.53
2018-06-13T02:42:12.043Z,21.55
2018-06-13T02:43:12.028Z,21.53
2018-06-13T02:44:12.023Z,21.51
2018-06-13T02:45:12.018Z,21.43
2018-06-13T02:46:12.010Z,21.48
2018-06-13T02:47:12.005Z,21.53
2018-06-13T02:48:11.993Z,21.53
2018-06-13T02:49:11.987Z,21.46
2018-06-13T02:50:11.979Z,21.49
2018-06-13T02:51:11.973Z,21.38
2018-06-13T02:52:11.966Z,21.37
2018-06-13T02:53:12.165Z,21.38
2018-06-13T02:54:11.952Z,21.34
2018-06-13T02:55:11.947Z,21.31
2018-06-13T02:56:11.938Z,21.37
2018-06-13T02:57:11.935Z,21.34
2018-06-13T02:58:11.923Z,21.33
2018-06-13T02:59:11.916Z,21.31
2018-06-13T03:00:11.909Z,21.37
2018-06-13T03:01:11.902Z,21.34
2018-06-13T03:02:11.895Z,21.40
2018-06-13T03:03:11.888Z,21.37
2018-06-13T03:04:11.884Z,21.37
2018-06-13T03:05:11.875Z,21.43
2018-06-13T03:06:11.867Z,21.43
2018-06-13T03:07:11.860Z,21.46
2018-06-13T03:08:11.852Z,21.36
2018-06-13T03:09:11.915Z,21.36
2018-06-13T03:10:11.839Z,21.33
2018-06-13T03:11:11.831Z,21.27
2018-06-13T03:12:11.826Z,21.34
2018-06-13T03:13:11.817Z,21.38
2018-06-13T03:14:11.812Z,21.31
2018-06-13T03:15:11.803Z,21.33
2018-06-13T03:16:11.799Z,21.33
2018-06-13T03:17:11.791Z,21.19
2018-06-13T03:18:11.781Z,21.31
2018-06-13T03:19:11.774Z,21.22
2018-06-13T03:20:11.766Z,21.26
2018-06-13T03:21:11.761Z,21.19
2018-06-13T03:22:11.752Z,21.16
2018-06-13T03:23:11.745Z,21.24
2018-06-13T03:24:11.737Z,21.28
2018-06-13T03:25:11.732Z,21.19
2018-06-13T03:26:11.725Z,21.22
2018-06-13T03:27:11.717Z,21.24
2018-06-13T03:28:11.708Z,21.19
2018-06-13T03:29:11.701Z,21.19
2018-06-13T03:30:11.695Z,21.30
2018-06-13T03:31:11.688Z,21.19
2018-06-13T03:32:11.679Z,21.18
2018-06-13T03:33:11.672Z,21.16
2018-06-13T03:34:11.665Z,21.27
2018-06-13T03:35:11.657Z,21.19
2018-06-13T03:36:11.652Z,21.19
2018-06-13T03:37:11.643Z,21.21
2018-06-13T03:38:11.636Z,21.24
2018-06-13T03:39:11.628Z,21.24
2018-06-13T03:40:11.622Z,21.22
2018-06-13T03:41:11.627Z,21.19
2018-06-13T03:42:11.608Z,21.19
2018-06-13T03:43:11.599Z,21.21
2018-06-13T03:44:11.591Z,21.21
2018-06-13T03:45:11.589Z,21.19
2018-06-13T03:46:11.576Z,21.19
2018-06-13T03:47:11.569Z,21.21
2018-06-13T03:48:11.561Z,21.18
2018-06-13T03:49:11.558Z,21.24
2018-06-13T03:50:11.547Z,21.19
2018-06-13T03:51:11.539Z,21.19
2018-06-13T03:52:11.532Z,21.21
2018-06-13T03:53:11.525Z,21.21
2018-06-13T03:54:11.518Z,21.19
2018-06-13T03:55:11.512Z,21.18
2018-06-13T03:56:11.503Z,21.21
2018-06-13T03:57:11.496Z,21.19
2018-06-13T03:58:11.488Z,21.26
2018-06-13T03:59:11.481Z,21.26
2018-06-13T04:00:11.475Z,21.22
2018-06-13T04:01:11.467Z,21.19
2018-06-13T04:02:11.459Z,21.18
2018-06-13T04:03:11.451Z,21.21
2018-06-13T04:04:11.444Z,21.19
2018-06-13T04:05:11.437Z,21.22
2018-06-13T04:06:11.434Z,21.18
2018-06-13T04:07:11.455Z,21.18
2018-06-13T04:08:11.417Z,21.19
2018-06-13T04:09:11.407Z,21.22
2018-06-13T04:10:11.402Z,21.21
2018-06-13T04:11:11.392Z,21.30
2018-06-13T04:12:11.385Z,21.24
2018-06-13T04:13:11.377Z,21.21
2018-06-13T04:14:11.370Z,21.22
2018-06-13T04:15:11.364Z,21.31
2018-06-13T04:16:11.362Z,21.27
2018-06-13T04:17:11.548Z,21.30
2018-06-13T04:18:11.340Z,21.30
2018-06-13T04:19:11.332Z,21.30
2018-06-13T04:20:11.326Z,21.33
2018-06-13T04:21:11.318Z,21.31
2018-06-13T04:22:11.312Z,21.33
2018-06-13T04:23:11.304Z,21.33
2018-06-13T04:24:11.296Z,21.31
2018-06-13T04:25:11.289Z,21.31
2018-06-13T04:26:11.282Z,21.28
2018-06-13T04:27:11.275Z,21.30
2018-06-13T04:28:11.270Z,21.28
2018-06-13T04:29:11.461Z,21.36
2018-06-13T04:30:11.254Z,21.40
2018-06-13T04:31:11.246Z,21.31
2018-06-13T04:32:11.239Z,21.36
2018-06-13T04:33:11.232Z,21.31
2018-06-13T04:34:11.225Z,21.34
2018-06-13T04:35:11.219Z,21.38
2018-06-13T04:36:11.210Z,21.40
2018-06-13T04:37:11.204Z,21.37
2018-06-13T04:38:11.197Z,21.36
2018-06-13T04:39:11.190Z,21.40
2018-06-13T04:40:11.182Z,21.46
2018-06-13T04:41:11.177Z,21.38
2018-06-13T04:42:11.170Z,21.37
2018-06-13T04:43:11.160Z,21.33
2018-06-13T04:44:11.154Z,21.34
2018-06-13T04:45:11.147Z,21.33
2018-06-13T04:46:11.139Z,21.33
2018-06-13T04:47:11.132Z,21.24
2018-06-13T04:48:11.125Z,21.31
2018-06-13T04:49:11.118Z,21.21
2018-06-13T04:50:11.111Z,21.26
2018-06-13T04:51:11.103Z,21.19
2018-06-13T04:52:11.096Z,21.22
2018-06-13T04:53:11.089Z,21.15
2018-06-13T04:54:11.082Z,21.08
2018-06-13T04:55:11.073Z,21.09
2018-06-13T04:56:11.067Z,21.19
2018-06-13T04:57:11.060Z,21.15
2018-06-13T04:58:11.052Z,21.18
2018-06-13T04:59:11.246Z,21.19
2018-06-13T05:00:11.038Z,21.15
2018-06-13T05:01:11.030Z,21.05
2018-06-13T05:02:11.024Z,21.11
2018-06-13T05:03:11.015Z,21.03
2018-06-13T05:04:11.008Z,21.13
2018-06-13T05:05:11.001Z,21.11
2018-06-13T05:06:10.995Z,21.06
2018-06-13T05:07:10.985Z,21.16
2018-06-13T05:08:10.979Z,21.21
2018-06-13T05:09:10.971Z,21.22
2018-06-13T05:10:10.963Z,21.21
2018-06-13T05:11:10.955Z,21.24
2018-06-13T05:12:10.948Z,21.22
2018-06-13T05:13:10.941Z,21.21
2018-06-13T05:14:10.934Z,21.15
2018-06-13T05:15:10.926Z,21.26
2018-06-13T05:16:10.919Z,21.13
2018-06-13T05:17:11.112Z,21.21
2018-06-13T05:18:10.905Z,21.18
2018-06-13T05:19:10.897Z,21.28
2018-06-13T05:20:10.889Z,21.22
2018-06-13T05:21:10.888Z,21.21
2018-06-13T05:22:10.876Z,21.24
2018-06-13T05:23:10.868Z,21.19
2018-06-13T05:24:10.860Z,21.19
2018-06-13T05:25:10.853Z,21.19
2018-06-13T05:26:10.845Z,21.19
2018-06-13T05:27:10.839Z,21.16
2018-06-13T05:28:10.831Z,21.22
2018-06-13T05:29:10.823Z,21.19
2018-06-13T05:30:10.818Z,21.24
2018-06-13T05:31:10.808Z,21.22
2018-06-13T05:32:10.801Z,21.16
2018-06-13T05:33:10.796Z,21.15
2018-06-13T05:34:10.789Z,21.21
2018-06-13T05:35:10.981Z,21.21
2018-06-13T05:36:10.774Z,21.26
2018-06-13T05:37:10.764Z,21.18
2018-06-13T05:38:10.757Z,21.19
2018-06-13T05:39:10.749Z,21.24
2018-06-13T05:40:10.743Z,21.21
2018-06-13T05:41:10.735Z,21.28
2018-06-13T05:42:10.728Z,21.21
2018-06-13T05:43:10.721Z,21.21
2018-06-13T05:44:10.713Z,21.21
2018-06-13T05:45:10.706Z,21.09
2018-06-13T05:46:10.699Z,21.21
2018-06-13T05:47:10.691Z,21.09
2018-06-13T05:48:10.685Z,21.13
2018-06-13T05:49:10.677Z,21.09
2018-06-13T05:50:10.672Z,21.22
2018-06-13T05:51:10.669Z,21.18
2018-06-13T05:52:10.654Z,21.18
2018-06-13T05:53:10.648Z,21.27
2018-06-13T05:54:10.641Z,21.28
2018-06-13T05:55:10.633Z,21.26
2018-06-13T05:56:10.625Z,21.28
2018-06-13T05:57:10.619Z,21.21
2018-06-13T05:58:10.611Z,21.28
2018-06-13T05:59:10.604Z,21.18
2018-06-13T06:00:10.597Z,21.19
2018-06-13T06:01:10.635Z,21.18
2018-06-13T06:02:10.582Z,21.24
2018-06-13T06:03:10.576Z,21.24
2018-06-13T06:04:10.567Z,21.21
2018-06-13T06:05:10.560Z,21.26
2018-06-13T06:06:10.553Z,21.21
2018-06-13T06:07:10.547Z,21.21
2018-06-13T06:08:10.538Z,21.27
2018-06-13T06:09:10.531Z,21.22
2018-06-13T06:10:10.594Z,21.19
2018-06-13T06:11:10.717Z,21.21
2018-06-13T06:12:10.511Z,21.19
2018-06-13T06:13:10.502Z,21.18
2018-06-13T06:14:10.495Z,21.31
2018-06-13T06:15:10.490Z,21.30
2018-06-13T06:16:10.480Z,21.24
2018-06-13T06:17:10.475Z,21.27
2018-06-13T06:18:10.466Z,21.30
2018-06-13T06:19:10.458Z,21.33
2018-06-13T06:20:10.451Z,21.30
2018-06-13T06:21:10.444Z,21.31
2018-06-13T06:22:10.438Z,21.24
2018-06-13T06:23:10.629Z,21.21
2018-06-13T06:24:10.422Z,21.19
2018-06-13T06:25:10.415Z,21.31
2018-06-13T06:26:10.418Z,21.21
2018-06-13T06:27:10.400Z,21.19
2018-06-13T06:28:10.393Z,21.22
2018-06-13T06:29:10.587Z,21.18
2018-06-13T06:30:10.379Z,21.18
2018-06-13T06:31:10.372Z,21.19
2018-06-13T06:32:10.376Z,21.22
2018-06-13T06:33:10.357Z,21.21
2018-06-13T06:34:10.352Z,21.15
2018-06-13T06:35:10.342Z,21.09
2018-06-13T06:36:10.335Z,21.22
2018-06-13T06:37:10.328Z,21.16
2018-06-13T06:38:10.321Z,21.16
2018-06-13T06:39:10.314Z,21.24
2018-06-13T06:40:10.307Z,21.21
2018-06-13T06:41:10.500Z,21.26
2018-06-13T06:42:10.321Z,21.31
2018-06-13T06:43:10.284Z,21.19
2018-06-13T06:44:10.277Z,21.16
2018-06-13T06:45:10.270Z,21.13
2018-06-13T06:46:10.263Z,21.21
2018-06-13T06:47:10.256Z,21.11
2018-06-13T06:48:10.248Z,21.05
2018-06-13T06:49:10.241Z,21.09
2018-06-13T06:50:10.234Z,21.15
2018-06-13T06:51:10.229Z,21.15
2018-06-13T06:52:10.219Z,21.24
2018-06-13T06:53:10.413Z,21.21
2018-06-13T06:54:10.208Z,21.22
2018-06-13T06:55:10.216Z,21.22
2018-06-13T06:56:10.192Z,21.24
2018-06-13T06:57:10.184Z,21.16
2018-06-13T06:58:10.180Z,21.21
2018-06-13T06:59:10.169Z,21.03
2018-06-13T07:00:10.162Z,21.13
2018-06-13T07:01:10.155Z,21.16
2018-06-13T07:02:10.150Z,21.00
2018-06-13T07:03:10.140Z,20.96
2018-06-13T07:04:10.133Z,21.00
2018-06-13T07:05:10.130Z,20.88
2018-06-13T07:06:10.119Z,20.93
2018-06-13T07:07:10.113Z,20.82
2018-06-13T07:08:10.107Z,20.93
2018-06-13T07:09:10.098Z,20.91
2018-06-13T07:10:10.090Z,20.96
2018-06-13T07:11:10.087Z,20.82
2018-06-13T07:12:10.077Z,20.83
2018-06-13T07:13:10.085Z,20.82
2018-06-13T07:14:10.060Z,20.81
2018-06-13T07:15:10.054Z,20.82
2018-06-13T07:16:10.045Z,20.83
2018-06-13T07:17:10.238Z,20.73
2018-06-13T07:18:10.033Z,20.73
2018-06-13T07:19:10.024Z,20.78
2018-06-13T07:20:10.016Z,20.72
2018-06-13T07:21:10.011Z,20.69
2018-06-13T07:22:10.000Z,20.48
2018-06-13T07:23:09.992Z,20.54
2018-06-13T07:24:09.985Z,20.51
2018-06-13T07:25:09.977Z,20.53
2018-06-13T07:26:09.971Z,20.51
2018-06-13T07:27:09.962Z,20.50
2018-06-13T07:28:09.957Z,20.56
2018-06-13T07:29:09.952Z,20.60
2018-06-13T07:30:09.940Z,20.56
2018-06-13T07:31:09.931Z,20.57
2018-06-13T07:32:09.924Z,20.53
2018-06-13T07:33:09.916Z,20.44
2018-06-13T07:34:09.908Z,20.48
2018-06-13T07:35:09.900Z,20.38
2018-06-13T07:36:09.894Z,20.42
2018-06-13T07:37:09.885Z,20.44
2018-06-13T07:38:09.878Z,20.37
2018-06-13T07:39:09.870Z,20.35
2018-06-13T07:40:09.862Z,20.44
2018-06-13T07:41:10.055Z,20.42
2018-06-13T07:42:09.849Z,20.34
2018-06-13T07:43:09.838Z,20.41
2018-06-13T07:44:09.831Z,20.33
2018-06-13T07:45:09.823Z,20.46
2018-06-13T07:46:09.816Z,20.46
2018-06-13T07:47:09.808Z,20.48
2018-06-13T07:48:09.801Z,20.41
2018-06-13T07:49:09.799Z,20.57
2018-06-13T07:50:09.786Z,20.44
2018-06-13T07:51:09.779Z,20.35
2018-06-13T07:52:09.771Z,20.38
2018-06-13T07:53:09.962Z,20.27
2018-06-13T07:54:09.755Z,20.37
2018-06-13T07:55:09.764Z,20.19
2018-06-13T07:56:09.742Z,20.17
2018-06-13T07:57:09.733Z,20.15
2018-06-13T07:58:09.723Z,20.08
2018-06-13T07:59:09.915Z,20.10
2018-06-13T08:00:09.707Z,20.19
2018-06-13T08:01:09.699Z,20.19
2018-06-13T08:02:09.710Z,20.16
2018-06-13T08:03:09.683Z,20.16
2018-06-13T08:04:09.676Z,20.20
2018-06-13T08:05:09.667Z,20.13
2018-06-13T08:06:09.660Z,20.15
2018-06-13T08:07:09.652Z,20.08
2018-06-13T08:08:09.643Z,20.15
2018-06-13T08:09:09.638Z,20.01
2018-06-13T08:10:09.629Z,20.12
2018-06-13T08:11:09.620Z,19.92
2018-06-13T08:12:09.612Z,19.86
2018-06-13T08:13:09.604Z,19.83
2018-06-13T08:14:09.596Z,19.79
2018-06-13T08:15:09.587Z,19.68
2018-06-13T08:16:09.579Z,19.64
2018-06-13T08:17:09.571Z,19.61
2018-06-13T08:18:09.564Z,19.65
2018-06-13T08:19:09.555Z,19.62
2018-06-13T08:20:09.546Z,19.67
2018-06-13T08:21:09.538Z,19.79
2018-06-13T08:22:09.531Z,19.79
2018-06-13T08:23:09.521Z,19.75
2018-06-13T08:24:09.513Z,19.76
2018-06-13T08:25:09.504Z,19.68
2018-06-13T08:26:09.538Z,19.64
2018-06-13T08:27:09.487Z,19.57
2018-06-13T08:28:09.480Z,19.62
2018-06-13T08:29:09.672Z,19.50
2018-06-13T08:30:09.462Z,19.60
2018-06-13T08:31:09.453Z,19.67
2018-06-13T08:32:09.445Z,19.71
2018-06-13T08:33:09.437Z,19.58
2018-06-13T08:34:09.428Z,19.62
2018-06-13T08:35:09.421Z,19.67
2018-06-13T08:36:09.411Z,19.61
2018-06-13T08:37:09.402Z,19.58
2018-06-13T08:38:09.394Z,19.55
2018-06-13T08:39:09.384Z,19.50
2018-06-13T08:40:09.376Z,19.58
2018-06-13T08:41:09.367Z,19.47
2018-06-13T08:42:09.359Z,19.53
2018-06-13T08:43:09.350Z,19.61
2018-06-13T08:44:09.341Z,19.64
2018-06-13T08:45:09.333Z,19.55
2018-06-13T08:46:09.324Z,19.61
2018-06-13T08:47:09.515Z,19.70
2018-06-13T08:48:09.306Z,19.65
2018-06-13T08:49:09.298Z,19.67
2018-06-13T08:50:09.292Z,19.67
2018-06-13T08:51:09.281Z,19.67
2018-06-13T08:52:09.272Z,19.67
2018-06-13T08:53:09.266Z,19.68
2018-06-13T08:54:09.319Z,19.67
2018-06-13T08:55:09.247Z,19.67
2018-06-13T08:56:09.243Z,19.76
2018-06-13T08:57:09.232Z,19.68
2018-06-13T08:58:09.222Z,19.75
2018-06-13T08:59:09.413Z,19.68
2018-06-13T09:00:09.205Z,19.67
2018-06-13T09:01:09.197Z,19.58
2018-06-13T09:02:09.188Z,19.70
2018-06-13T09:03:09.205Z,19.71
2018-06-13T09:04:09.171Z,19.78
2018-06-13T09:05:09.162Z,19.72
2018-06-13T09:06:09.157Z,19.68
2018-06-13T09:07:09.146Z,19.62
2018-06-13T09:08:09.137Z,19.68
2018-06-13T09:09:09.131Z,19.68
2018-06-13T09:10:09.121Z,19.58
2018-06-13T09:11:09.114Z,19.62
2018-06-13T09:12:09.107Z,19.64
2018-06-13T09:13:09.096Z,19.62
2018-06-13T09:14:09.088Z,19.67
2018-06-13T09:15:09.083Z,19.60
2018-06-13T09:16:09.072Z,19.64
2018-06-13T09:17:09.063Z,19.68
2018-06-13T09:18:09.054Z,19.67
2018-06-13T09:19:09.045Z,19.72
2018-06-13T09:20:09.037Z,19.75
2018-06-13T09:21:09.030Z,19.78
2018-06-13T09:22:09.021Z,19.79
2018-06-13T09:23:09.012Z,19.86
2018-06-13T09:24:09.004Z,19.80
2018-06-13T09:25:08.996Z,19.85
2018-06-13T09:26:08.988Z,19.78
2018-06-13T09:27:08.978Z,19.78
2018-06-13T09:28:08.971Z,19.68
2018-06-13T09:29:08.963Z,19.71
2018-06-13T09:30:08.955Z,19.70
2018-06-13T09:31:08.960Z,19.62
2018-06-13T09:32:08.938Z,19.65
2018-06-13T09:33:08.930Z,19.72
2018-06-13T09:34:08.924Z,19.71
2018-06-13T09:35:08.918Z,19.72
2018-06-13T09:36:08.905Z,19.70
2018-06-13T09:37:08.896Z,19.70
2018-06-13T09:38:08.889Z,19.64
2018-06-13T09:39:08.879Z,19.65
2018-06-13T09:40:08.872Z,19.61
2018-06-13T09:41:09.074Z,19.61
2018-06-13T09:42:08.855Z,19.49
2018-06-13T09:43:08.846Z,19.46
2018-06-13T09:44:08.838Z,19.35
2018-06-13T09:45:08.830Z,19.31
2018-06-13T09:46:12.013Z,19.34
2018-06-13T09:47:15.133Z,19.31
2018-06-13T09:48:08.803Z,19.28
2018-06-13T09:49:08.797Z,19.30
2018-06-13T09:50:08.829Z,19.31
2018-06-13T09:51:08.778Z,19.34
2018-06-13T09:52:08.772Z,19.32
2018-06-13T09:53:08.761Z,19.38
2018-06-13T09:54:08.754Z,19.39
2018-06-13T09:55:08.743Z,19.35
2018-06-13T09:56:08.734Z,19.34
2018-06-13T09:57:08.727Z,19.31
2018-06-13T09:58:08.721Z,19.38
2018-06-13T09:59:08.909Z,19.50
2018-06-13T10:00:08.700Z,19.49
2018-06-13T10:01:08.691Z,19.43
2018-06-13T10:02:08.716Z,19.50
2018-06-13T10:03:08.676Z,19.47
2018-06-13T10:04:08.667Z,19.43
2018-06-13T10:05:08.657Z,19.52
2018-06-13T10:06:08.648Z,19.47
2018-06-13T10:07:08.638Z,19.45
2018-06-13T10:08:08.631Z,19.53
2018-06-13T10:09:08.623Z,19.46
2018-06-13T10:10:08.614Z,19.42
2018-06-13T10:11:08.614Z,19.43
2018-06-13T10:12:08.597Z,19.47
2018-06-13T10:13:08.591Z,19.47
2018-06-13T10:14:08.579Z,19.43
2018-06-13T10:15:08.575Z,19.49
2018-06-13T10:16:08.562Z,19.53
2018-06-13T10:17:08.553Z,19.60
2018-06-13T10:18:08.545Z,19.57
2018-06-13T10:19:08.536Z,19.50
2018-06-13T10:20:08.527Z,19.62
2018-06-13T10:21:08.519Z,19.50
2018-06-13T10:22:08.554Z,19.50
2018-06-13T10:23:08.502Z,19.60
2018-06-13T10:24:08.493Z,19.60
2018-06-13T10:25:08.484Z,19.53
2018-06-13T10:26:08.477Z,19.53
2018-06-13T10:27:08.467Z,19.55
2018-06-13T10:28:08.461Z,19.52
2018-06-13T10:29:08.451Z,19.52
2018-06-13T10:30:08.441Z,19.53
2018-06-13T10:31:08.434Z,19.55
2018-06-13T10:32:08.424Z,19.60
2018-06-13T10:33:08.415Z,19.50
2018-06-13T10:34:08.407Z,19.53
2018-06-13T10:35:08.399Z,19.53
2018-06-13T10:36:08.441Z,19.57
2018-06-13T10:37:08.383Z,19.52
2018-06-13T10:38:08.375Z,19.52
2018-06-13T10:39:08.363Z,19.53
2018-06-13T10:40:08.359Z,19.53
2018-06-13T10:41:08.546Z,19.50
2018-06-13T10:42:08.338Z,19.53
2018-06-13T10:43:08.328Z,19.50
2018-06-13T10:44:08.324Z,19.58
2018-06-13T10:45:08.314Z,19.60
2018-06-13T10:46:08.306Z,19.53
2018-06-13T10:47:08.293Z,19.61
2018-06-13T10:48:08.285Z,19.67
2018-06-13T10:49:08.276Z,19.62
2018-06-13T10:50:08.268Z,19.58
2018-06-13T10:51:08.261Z,19.62
2018-06-13T10:52:08.257Z,19.55
2018-06-13T10:53:08.242Z,19.53
2018-06-13T10:54:08.235Z,19.64
2018-06-13T10:55:08.225Z,19.62
2018-06-13T10:56:08.216Z,19.62
2018-06-13T10:57:08.207Z,19.64
2018-06-13T10:58:08.200Z,19.67
2018-06-13T10:59:08.189Z,19.55
2018-06-13T11:00:08.181Z,19.65
2018-06-13T11:01:08.172Z,19.65
2018-06-13T11:02:08.163Z,19.64
2018-06-13T11:03:08.154Z,19.65
2018-06-13T11:04:08.146Z,19.65
2018-06-13T11:05:08.138Z,19.71
2018-06-13T11:06:08.131Z,19.80
2018-06-13T11:07:08.120Z,19.76
2018-06-13T11:08:08.111Z,19.75
2018-06-13T11:09:08.106Z,19.79
2018-06-13T11:10:08.094Z,19.76
2018-06-13T11:11:08.085Z,19.75
2018-06-13T11:12:08.077Z,19.80
2018-06-13T11:13:08.070Z,19.76
2018-06-13T11:14:08.062Z,19.75
2018-06-13T11:15:08.051Z,19.80
2018-06-13T11:16:08.042Z,19.76
2018-06-13T11:17:08.033Z,19.80
2018-06-13T11:18:08.025Z,19.76
2018-06-13T11:19:08.019Z,19.79
2018-06-13T11:20:08.008Z,19.78
2018-06-13T11:21:08.000Z,19.82
2018-06-13T11:22:07.991Z,19.82
2018-06-13T11:23:07.981Z,19.79
2018-06-13T11:24:07.975Z,19.82
2018-06-13T11:25:07.965Z,19.85
2018-06-13T11:26:07.969Z,19.86
2018-06-13T11:27:07.948Z,19.94
2018-06-13T11:28:07.939Z,19.86
2018-06-13T11:29:07.977Z,19.95
2018-06-13T11:30:07.923Z,19.97
2018-06-13T11:31:07.915Z,19.90
2018-06-13T11:32:07.905Z,20.08
2018-06-13T11:33:07.896Z,20.08
2018-06-13T11:34:07.888Z,20.15
2018-06-13T11:35:07.881Z,20.20
2018-06-13T11:36:07.871Z,20.10
2018-06-13T11:37:07.865Z,20.17
2018-06-13T11:38:07.856Z,20.15
2018-06-13T11:39:07.847Z,20.15
2018-06-13T11:40:07.838Z,20.22
2018-06-13T11:41:07.830Z,20.27
2018-06-13T11:42:07.828Z,20.37
2018-06-13T11:43:07.813Z,20.35
2018-06-13T11:44:07.805Z,20.44
2018-06-13T11:45:07.801Z,20.41
2018-06-13T11:46:07.789Z,20.35
2018-06-13T11:47:07.780Z,20.35
2018-06-13T11:48:07.805Z,20.42
2018-06-13T11:49:07.764Z,20.35
2018-06-13T11:50:07.758Z,20.40
2018-06-13T11:51:07.748Z,20.44
2018-06-13T11:52:07.740Z,20.37
2018-06-13T11:53:07.731Z,20.37
2018-06-13T11:54:07.724Z,20.42
2018-06-13T11:55:07.715Z,20.46
2018-06-13T11:56:07.707Z,20.44
2018-06-13T11:57:07.850Z,20.53
2018-06-13T11:58:07.692Z,20.51
2018-06-13T11:59:07.685Z,20.53
2018-06-13T12:00:07.675Z,20.61
2018-06-13T12:01:07.667Z,20.53
2018-06-13T12:02:07.862Z,20.56
2018-06-13T12:03:07.650Z,20.69
2018-06-13T12:04:07.643Z,20.69
2018-06-13T12:05:07.636Z,20.73
2018-06-13T12:06:07.636Z,20.75
2018-06-13T12:07:07.622Z,20.81
2018-06-13T12:08:07.611Z,20.85
2018-06-13T12:09:07.603Z,20.94
2018-06-13T12:10:07.596Z,21.13
2018-06-13T12:11:07.589Z,21.05
2018-06-13T12:12:07.580Z,21.16
2018-06-13T12:13:07.582Z,21.22
2018-06-13T12:14:07.566Z,21.26
2018-06-13T12:15:07.557Z,21.12
2018-06-13T12:16:07.555Z,21.09
2018-06-13T12:17:07.543Z,21.11
2018-06-13T12:18:07.537Z,21.05
2018-06-13T12:19:07.531Z,21.09
2018-06-13T12:20:07.522Z,21.03
2018-06-13T12:21:07.531Z,21.18
2018-06-13T12:22:07.505Z,21.18
2018-06-13T12:23:07.497Z,21.16
2018-06-13T12:24:07.489Z,21.03
2018-06-13T12:25:07.483Z,21.03
2018-06-13T12:26:07.474Z,21.15
2018-06-13T12:27:07.468Z,21.21
2018-06-13T12:28:07.459Z,21.18
2018-06-13T12:29:07.451Z,21.24
2018-06-13T12:30:07.444Z,21.28
2018-06-13T12:31:07.437Z,21.34
2018-06-13T12:32:07.432Z,21.33
2018-06-13T12:33:07.421Z,21.40
2018-06-13T12:34:07.416Z,21.38
2018-06-13T12:35:07.406Z,21.45
2018-06-13T12:36:07.398Z,21.59
2018-06-13T12:37:07.393Z,21.61
2018-06-13T12:38:07.384Z,21.61
2018-06-13T12:39:07.376Z,21.68
2018-06-13T12:40:07.369Z,21.75
2018-06-13T12:41:07.363Z,21.77
2018-06-13T12:42:07.557Z,21.96
2018-06-13T12:43:07.348Z,21.98
2018-06-13T12:44:07.346Z,22.12
2018-06-13T12:45:07.336Z,22.29
2018-06-13T12:46:07.327Z,22.31
2018-06-13T12:47:07.319Z,22.19
2018-06-13T12:48:07.312Z,22.17
2018-06-13T12:49:07.314Z,22.09
2018-06-13T12:50:07.300Z,22.14
2018-06-13T12:51:07.296Z,21.99
2018-06-13T12:52:07.286Z,21.98